Time;durP1;ratioP1;P1;durP2;ratioP2;P2;SDS_P1;SDS_P2;PMS_P1;PMS_P2;Temp;Humidity;BMP_temperature;BMP_pressure;BME280_temperature;BME280_humidity;BME280_pressure;Samples;Min_cycle;Max_cycle;Signal;HPM_P1;HPM_P2
2024/01/08 00:00:42;;;;;;;8.27;6.13;;;;;;;-1.76;89.29;102151.81;7391446;19;20859;-65
2024/01/08 00:03:09;;;;;;;6.78;5.93;;;;;;;-1.74;89.32;102150.00;7393341;19;20352;-66
2024/01/08 00:05:40;;;;;;;7.55;5.95;;;;;;;-1.73;89.04;102156.88;7391914;19;20494;-66
2024/01/08 00:08:07;;;;;;;6.72;5.78;;;;;;;-1.72;89.07;102152.50;7393608;19;20360;-66
2024/01/08 00:10:37;;;;;;;8.53;6.30;;;;;;;-1.73;89.24;102156.88;7390823;19;20501;-66
2024/01/08 00:13:05;;;;;;;6.88;5.85;;;;;;;-1.73;89.33;102156.88;7393176;19;20361;-66
2024/01/08 00:15:32;;;;;;;6.93;5.70;;;;;;;-1.73;89.00;102156.03;7391305;19;20361;-66
2024/01/08 00:17:59;;;;;;;8.05;6.40;;;;;;;-1.74;89.20;102155.19;7391800;19;20695;-66
2024/01/08 00:20:26;;;;;;;7.97;6.05;;;;;;;-1.78;89.44;102158.81;7390312;19;20411;-66
2024/01/08 00:22:53;;;;;;;8.27;6.30;;;;;;;-1.79;89.21;102154.50;7391741;19;20358;-66
2024/01/08 00:25:22;;;;;;;8.00;6.57;;;;;;;-1.81;89.53;102158.94;7389292;19;20356;-66
2024/01/08 00:27:50;;;;;;;7.78;6.25;;;;;;;-1.81;89.49;102158.09;7392419;19;20828;-65
2024/01/08 00:30:17;;;;;;;7.53;6.63;;;;;;;-1.79;89.39;102151.06;7393827;19;20787;-67
2024/01/08 00:32:45;;;;;;;7.95;6.18;;;;;;;-1.81;89.39;102152.88;7388003;19;20352;-67
2024/01/08 00:35:12;;;;;;;7.53;6.28;;;;;;;-1.84;89.31;102153.84;7390103;19;20362;-68
2024/01/08 00:37:41;;;;;;;8.38;6.47;;;;;;;-1.84;89.38;102159.06;7393609;19;20335;-67
2024/01/08 00:40:12;;;;;;;6.75;6.05;;;;;;;-1.84;89.59;102153.84;7390969;19;20361;-67
2024/01/08 00:42:38;;;;;;;7.05;6.28;;;;;;;-1.85;89.57;102157.34;7391391;19;20357;-67
2024/01/08 00:45:07;;;;;;;6.90;6.20;;;;;;;-1.83;89.35;102165.09;7389610;19;20931;-68
2024/01/08 00:47:34;;;;;;;8.13;6.65;;;;;;;-1.82;89.59;102165.06;7383101;19;20700;-67
2024/01/08 00:50:02;;;;;;;8.27;5.97;;;;;;;-1.79;89.38;102164.91;7390698;19;20357;-67
2024/01/08 00:52:29;;;;;;;7.10;6.03;;;;;;;-1.79;89.57;102167.50;7389015;19;20383;-67
2024/01/08 00:55:01;;;;;;;7.15;5.88;;;;;;;-1.80;89.25;102171.03;7386399;19;20329;-68
2024/01/08 00:57:28;;;;;;;7.20;5.50;;;;;;;-1.82;89.38;102170.25;7391025;19;20329;-67
2024/01/08 00:59:55;;;;;;;8.00;5.70;;;;;;;-1.80;89.20;102173.66;7392508;19;20378;-67
2024/01/08 01:02:22;;;;;;;7.85;6.05;;;;;;;-1.76;89.51;102166.56;7390936;19;20343;-67
2024/01/08 01:04:48;;;;;;;7.97;6.13;;;;;;;-1.74;89.38;102168.22;7391291;19;20814;-67
2024/01/08 01:07:16;;;;;;;7.55;6.18;;;;;;;-1.71;89.57;102173.28;7389518;19;20348;-67
2024/01/08 01:09:42;;;;;;;7.80;6.20;;;;;;;-1.74;89.33;102169.94;7390364;19;20395;-67
2024/01/08 01:12:10;;;;;;;9.52;6.35;;;;;;;-1.72;89.42;102165.53;7389210;19;20353;-67
2024/01/08 01:14:36;;;;;;;8.05;6.10;;;;;;;-1.70;89.56;102177.59;7389377;19;20360;-67
2024/01/08 01:17:03;;;;;;;6.72;5.90;;;;;;;-1.71;89.48;102175.88;7392022;19;20372;-67
2024/01/08 01:19:30;;;;;;;7.95;6.00;;;;;;;-1.72;89.17;102182.00;7392295;19;20353;-67
2024/01/08 01:21:56;;;;;;;7.45;6.10;;;;;;;-1.72;89.41;102179.41;7387851;19;20373;-67
2024/01/08 01:24:24;;;;;;;8.43;6.90;;;;;;;-1.66;89.21;102192.19;7388568;19;20371;-67
2024/01/08 01:26:50;;;;;;;9.30;6.50;;;;;;;-1.71;89.02;102191.50;7386282;19;20384;-67
2024/01/08 01:29:17;;;;;;;9.30;6.65;;;;;;;-1.69;89.18;102196.66;7389265;19;20382;-67
2024/01/08 01:31:44;;;;;;;7.95;6.50;;;;;;;-1.66;89.03;102189.56;7388255;19;20325;-66
2024/01/08 01:34:11;;;;;;;7.63;6.60;;;;;;;-1.66;88.79;102186.09;7390953;19;20683;-67
2024/01/08 01:36:39;;;;;;;7.25;6.32;;;;;;;-1.65;88.83;102188.66;7387450;19;20352;-67
2024/01/08 01:39:06;;;;;;;8.07;6.80;;;;;;;-1.59;88.87;102191.91;7391050;19;20368;-66
2024/01/08 01:41:34;;;;;;;8.40;6.80;;;;;;;-1.55;88.78;102193.50;7386814;19;20331;-67
2024/01/08 01:44:00;;;;;;;7.70;6.78;;;;;;;-1.53;88.47;102189.06;7386314;19;20356;-66
2024/01/08 01:46:38;;;;;;;8.45;6.70;;;;;;;-1.52;88.19;102190.78;7390160;19;20705;-67
2024/01/08 01:49:07;;;;;;;7.00;6.20;;;;;;;-1.51;87.82;102193.34;7387979;19;20344;-66
2024/01/08 01:51:34;;;;;;;7.75;6.10;;;;;;;-1.49;87.44;102195.84;7389661;19;20886;-67
2024/01/08 01:54:01;;;;;;;8.38;6.68;;;;;;;-1.49;87.53;102195.84;7391560;19;20427;-67
2024/01/08 01:56:28;;;;;;;7.03;5.85;;;;;;;-1.50;86.86;102200.22;7391045;19;20337;-65
2024/01/08 01:58:56;;;;;;;8.50;6.03;;;;;;;-1.51;86.85;102200.28;7389096;19;20340;-66
2024/01/08 02:01:24;;;;;;;8.15;6.40;;;;;;;-1.49;86.98;102196.72;7389935;19;20360;-65
2024/01/08 02:03:52;;;;;;;8.48;6.18;;;;;;;-1.48;86.99;102193.22;7388499;19;20367;-66
2024/01/08 02:06:22;;;;;;;8.23;6.28;;;;;;;-1.44;87.14;102193.94;7386688;19;20437;-66
2024/01/08 02:08:51;;;;;;;7.72;6.13;;;;;;;-1.43;86.70;102198.22;7392790;19;20333;-66
2024/01/08 02:11:19;;;;;;;7.32;6.22;;;;;;;-1.44;86.72;102196.53;7394354;19;20336;-66
2024/01/08 02:13:47;;;;;;;7.60;5.95;;;;;;;-1.40;86.88;102195.53;7394832;19;20377;-65
2024/01/08 02:16:15;;;;;;;7.07;5.78;;;;;;;-1.44;86.34;102194.78;7396401;19;20633;-66
2024/01/08 02:18:41;;;;;;;7.30;6.13;;;;;;;-1.40;86.67;102195.53;7393962;19;20352;-66
2024/01/08 02:21:08;;;;;;;7.35;5.85;;;;;;;-1.43;85.98;102195.63;7392702;19;20357;-66
2024/01/08 02:23:35;;;;;;;6.22;5.43;;;;;;;-1.39;86.25;102197.19;7394134;19;20376;-66
2024/01/08 02:26:02;;;;;;;6.87;5.93;;;;;;;-1.36;86.21;102198.81;7396420;19;20336;-66
2024/01/08 02:28:29;;;;;;;7.13;6.43;;;;;;;-1.35;86.21;102203.97;7395423;19;20869;-66
2024/01/08 02:30:56;;;;;;;7.65;6.00;;;;;;;-1.33;86.33;102191.75;7393263;19;20356;-66
2024/01/08 02:33:23;;;;;;;8.10;6.45;;;;;;;-1.33;86.14;102199.56;7395620;19;20336;-66
2024/01/08 02:35:51;;;;;;;7.60;6.40;;;;;;;-1.32;86.01;102198.66;7394009;19;20434;-65
2024/01/08 02:38:17;;;;;;;7.97;6.50;;;;;;;-1.28;86.28;102200.22;7392616;19;20333;-65
2024/01/08 02:40:44;;;;;;;7.07;5.63;;;;;;;-1.32;85.55;102205.59;7392897;19;20404;-65
2024/01/08 02:43:11;;;;;;;7.50;6.03;;;;;;;-1.28;85.99;102204.59;7395027;19;20364;-65
2024/01/08 02:45:38;;;;;;;7.80;5.80;;;;;;;-1.25;85.49;102202.72;7397051;19;20369;-65
2024/01/08 02:48:05;;;;;;;6.38;5.68;;;;;;;-1.26;85.10;102202.75;7396203;19;20336;-65
2024/01/08 02:50:31;;;;;;;6.93;5.50;;;;;;;-1.25;85.44;102204.47;7392635;19;20715;-65
2024/01/08 02:52:58;;;;;;;6.65;5.90;;;;;;;-1.21;85.30;102205.19;7395176;19;20365;-66
2024/01/08 02:55:25;;;;;;;7.22;5.55;;;;;;;-1.25;84.58;102205.31;7394602;19;20364;-66
2024/01/08 02:57:53;;;;;;;6.38;5.20;;;;;;;-1.24;84.67;102211.38;7395518;19;20344;-66
2024/01/08 03:00:20;;;;;;;7.10;5.50;;;;;;;-1.24;84.32;102206.16;7393225;19;20376;-66
2024/01/08 03:02:47;;;;;;;6.38;5.75;;;;;;;-1.21;84.31;102205.19;7393974;19;20931;-66
2024/01/08 03:05:14;;;;;;;7.18;5.53;;;;;;;-1.21;84.12;102200.84;7393635;19;20741;-66
2024/01/08 03:07:40;;;;;;;6.55;5.43;;;;;;;-1.19;83.97;102201.63;7393005;19;20340;-66
2024/01/08 03:10:07;;;;;;;6.35;5.43;;;;;;;-1.19;83.64;102201.63;7392804;19;20851;-66
2024/01/08 03:12:34;;;;;;;6.18;5.10;;;;;;;-1.16;83.87;102209.31;7394257;19;20377;-66
2024/01/08 03:15:01;;;;;;;6.22;5.40;;;;;;;-1.13;83.69;102203.13;7392967;19;20352;-66
2024/01/08 03:17:28;;;;;;;6.03;4.85;;;;;;;-1.18;82.47;102208.50;7391311;19;20349;-66
2024/01/08 03:19:54;;;;;;;5.43;4.68;;;;;;;-1.18;82.36;102210.28;7390085;19;20353;-66
2024/01/08 03:22:21;;;;;;;6.30;5.15;;;;;;;-1.19;82.42;102224.19;7394590;19;20758;-66
2024/01/08 03:24:48;;;;;;;6.80;4.88;;;;;;;-1.17;82.78;102232.78;7392581;19;20382;-66
2024/01/08 03:27:15;;;;;;;5.55;4.70;;;;;;;-1.19;82.52;102229.41;7393962;19;20371;-66
2024/01/08 03:29:41;;;;;;;5.90;4.78;;;;;;;-1.19;82.29;102232.88;7396260;19;20368;-66
2024/01/08 03:32:09;;;;;;;6.35;4.63;;;;;;;-1.15;82.39;102223.16;7391209;19;20369;-66
2024/01/08 03:34:36;;;;;;;5.80;4.57;;;;;;;-1.17;82.13;102233.66;7393439;19;20344;-66
2024/01/08 03:37:03;;;;;;;5.72;4.70;;;;;;;-1.19;82.10;102226.78;7391650;19;20364;-66
2024/01/08 03:39:30;;;;;;;5.97;4.63;;;;;;;-1.18;82.36;102229.34;7390658;19;20350;-66
2024/01/08 03:41:57;;;;;;;5.57;4.07;;;;;;;-1.23;82.16;102229.53;7393987;19;20360;-66
2024/01/08 03:44:23;;;;;;;7.00;4.50;;;;;;;-1.23;82.28;102232.13;7392619;19;21023;-66
2024/01/08 03:46:51;;;;;;;5.70;4.47;;;;;;;-1.24;82.73;102233.03;7392053;19;20348;-66
2024/01/08 03:49:18;;;;;;;5.65;4.60;;;;;;;-1.23;83.00;102228.69;7393920;19;20347;-66
2024/01/08 03:51:45;;;;;;;6.45;4.80;;;;;;;-1.23;83.41;102229.53;7389966;19;20345;-66
2024/01/08 03:54:12;;;;;;;5.57;4.70;;;;;;;-1.21;83.08;102231.22;7391677;19;20878;-66
2024/01/08 03:56:39;;;;;;;6.25;5.03;;;;;;;-1.21;83.21;102231.22;7390567;19;20336;-67
2024/01/08 03:59:06;;;;;;;6.20;4.70;;;;;;;-1.19;83.62;102234.59;7392578;19;20361;-67
2024/01/08 04:01:33;;;;;;;6.22;4.80;;;;;;;-1.23;83.72;102233.91;7395902;19;20355;-66
2024/01/08 04:04:01;;;;;;;7.50;5.20;;;;;;;-1.23;83.85;102234.75;7390352;19;20349;-67
2024/01/08 04:06:28;;;;;;;5.93;4.97;;;;;;;-1.25;84.00;102236.56;7388847;19;20376;-66
2024/01/08 04:08:54;;;;;;;7.10;5.07;;;;;;;-1.28;84.31;102235.81;7391316;19;20359;-66
2024/01/08 04:11:21;;;;;;;6.30;5.32;;;;;;;-1.29;84.39;102241.94;7393168;19;20360;-66
2024/01/08 04:13:48;;;;;;;7.68;4.90;;;;;;;-1.30;84.25;102238.47;7389555;19;20332;-66
2024/01/08 04:16:15;;;;;;;6.85;5.10;;;;;;;-1.34;84.56;102244.75;7388806;19;20350;-66
2024/01/08 04:18:41;;;;;;;6.35;4.75;;;;;;;-1.28;84.42;102254.06;7390550;19;20332;-66
2024/01/08 04:21:08;;;;;;;5.35;4.38;;;;;;;-1.33;84.32;102243.81;7388567;19;20663;-66
2024/01/08 04:23:35;;;;;;;7.88;4.78;;;;;;;-1.32;84.42;102249.88;7387430;19;21435;-66
2024/01/08 04:26:02;;;;;;;5.35;4.60;;;;;;;-1.34;84.34;102247.34;7391722;19;20839;-66
2024/01/08 04:28:28;;;;;;;5.35;4.68;;;;;;;-1.36;83.65;102254.38;7393855;19;20340;-66
2024/01/08 04:30:55;;;;;;;4.72;4.00;;;;;;;-1.42;82.64;102254.59;7390700;19;20360;-66
2024/01/08 04:33:22;;;;;;;5.65;3.92;;;;;;;-1.50;81.14;102257.47;7385913;19;20328;-66
2024/01/08 04:35:49;;;;;;;5.55;4.15;;;;;;;-1.56;80.49;102256.88;7392285;19;20673;-66
2024/01/08 04:38:15;;;;;;;5.78;3.75;;;;;;;-1.68;79.30;102250.34;7393464;19;20356;-66
2024/01/08 04:40:42;;;;;;;5.20;3.78;;;;;;;-1.73;78.56;102254.91;7389631;19;20401;-65
2024/01/08 04:43:09;;;;;;;4.95;3.78;;;;;;;-1.77;78.77;102269.75;7391468;19;20368;-65
2024/01/08 04:45:35;;;;;;;4.95;3.72;;;;;;;-1.85;78.99;102266.59;7392458;19;20392;-66
2024/01/08 04:48:03;;;;;;;4.75;3.50;;;;;;;-1.98;78.00;102265.34;7391845;19;20706;-65
2024/01/08 04:50:30;;;;;;;6.53;4.18;;;;;;;-2.07;78.05;102272.56;7386556;19;20551;-66
2024/01/08 04:52:58;;;;;;;4.75;3.50;;;;;;;-2.16;77.04;102267.69;7387110;19;20689;-66
2024/01/08 04:55:25;;;;;;;4.57;3.30;;;;;;;-2.27;76.79;102281.06;7390194;19;20351;-65
2024/01/08 04:57:51;;;;;;;4.78;3.65;;;;;;;-2.37;76.06;102289.25;7392192;19;20356;-65
2024/01/08 05:00:18;;;;;;;4.88;3.40;;;;;;;-2.51;75.16;102285.38;7392835;19;20502;-65
2024/01/08 05:02:45;;;;;;;5.00;3.67;;;;;;;-2.61;74.30;102296.09;7392662;19;20341;-65
2024/01/08 05:05:12;;;;;;;5.05;3.45;;;;;;;-2.65;74.53;102297.97;7387494;19;20847;-65
2024/01/08 05:07:38;;;;;;;5.35;3.80;;;;;;;-2.72;74.67;102299.03;7390696;19;20389;-65
2024/01/08 05:10:06;;;;;;;4.93;3.60;;;;;;;-2.78;74.79;102307.06;7389074;19;20912;-66
2024/01/08 05:12:33;;;;;;;5.03;3.70;;;;;;;-2.87;74.74;102301.25;7392132;19;20384;-66
2024/01/08 05:15:01;;;;;;;5.70;4.13;;;;;;;-2.93;75.02;102310.97;7390732;19;20352;-66
2024/01/08 05:17:28;;;;;;;5.50;4.03;;;;;;;-2.98;75.35;102295.53;7388998;19;20345;-66
2024/01/08 05:19:55;;;;;;;5.13;4.00;;;;;;;-3.03;75.36;102302.63;7391393;19;20336;-66
2024/01/08 05:22:22;;;;;;;5.40;4.00;;;;;;;-3.14;75.37;102302.13;7386138;19;20377;-66
2024/01/08 05:24:48;;;;;;;5.85;4.07;;;;;;;-3.21;75.54;102300.56;7388540;19;20868;-66
2024/01/08 05:27:15;;;;;;;6.82;4.50;;;;;;;-3.26;77.76;102307.66;7389703;19;20855;-66
2024/01/08 05:29:42;;;;;;;5.00;4.00;;;;;;;-3.29;76.05;102306.84;7391388;19;20376;-66
2024/01/08 05:32:08;;;;;;;5.47;4.27;;;;;;;-3.39;75.45;102313.22;7387009;19;20335;-66
2024/01/08 05:34:35;;;;;;;6.68;4.68;;;;;;;-3.39;74.87;102322.75;7393140;19;20431;-66
2024/01/08 05:37:02;;;;;;;5.20;3.95;;;;;;;-3.46;74.31;102321.22;7390467;19;20675;-66
2024/01/08 05:39:29;;;;;;;5.55;4.10;;;;;;;-3.49;73.92;102322.16;7390568;19;20332;-66
2024/01/08 05:41:56;;;;;;;4.78;4.03;;;;;;;-3.55;73.33;102328.38;7390655;19;20389;-66
2024/01/08 05:44:22;;;;;;;4.82;3.83;;;;;;;-3.57;73.55;102326.69;7395284;19;20336;-66
2024/01/08 05:46:49;;;;;;;5.90;4.20;;;;;;;-3.66;72.76;102330.41;7397887;19;20328;-66
2024/01/08 05:49:16;;;;;;;5.38;4.25;;;;;;;-3.70;72.12;102329.66;7398597;19;20393;-66
2024/01/08 05:51:42;;;;;;;5.27;4.00;;;;;;;-3.79;71.40;102332.50;7395808;19;20356;-66
2024/01/08 05:54:09;;;;;;;5.15;3.78;;;;;;;-3.78;71.64;102347.19;7395628;19;20878;-66
2024/01/08 05:56:37;;;;;;;5.80;2.88;;;;;;;-3.79;72.24;102345.47;7394513;19;20884;-66
2024/01/08 05:59:04;;;;;;;6.15;4.53;;;;;;;-3.83;72.81;102343.00;7395289;19;20332;-66
2024/01/08 06:01:31;;;;;;;6.72;4.90;;;;;;;-3.84;73.20;102342.16;7395454;19;20366;-66
2024/01/08 06:03:57;;;;;;;5.80;4.60;;;;;;;-3.86;73.74;102353.47;7394918;19;20344;-66
2024/01/08 06:06:24;;;;;;;5.32;3.00;;;;;;;-3.92;73.73;102349.28;7390404;19;20357;-66
2024/01/08 06:08:51;;;;;;;6.78;4.75;;;;;;;-3.98;74.37;102354.63;7394160;19;20333;-66
2024/01/08 06:11:18;;;;;;;5.78;4.40;;;;;;;-4.07;74.35;102362.66;7395201;19;20328;-66
2024/01/08 06:13:45;;;;;;;6.10;4.38;;;;;;;-4.12;74.11;102363.63;7393787;19;20332;-66
2024/01/08 06:16:15;;;;;;;7.10;4.60;;;;;;;-4.14;74.17;102370.56;7393192;19;20328;-66
2024/01/08 06:18:42;;;;;;;5.82;4.68;;;;;;;-4.18;74.41;102368.94;7394020;19;20321;-66
2024/01/08 06:21:09;;;;;;;6.00;4.63;;;;;;;-4.19;74.28;102375.00;7394665;19;20336;-66
2024/01/08 06:23:36;;;;;;;6.45;5.10;;;;;;;-4.21;74.01;102376.78;7393172;19;20357;-64
2024/01/08 06:26:03;;;;;;;6.65;5.35;;;;;;;-4.20;73.67;102375.91;7399545;19;20381;-63
2024/01/08 06:28:30;;;;;;;6.28;4.85;;;;;;;-4.18;73.22;102378.47;7395998;19;20366;-63
2024/01/08 06:30:57;;;;;;;7.20;5.32;;;;;;;-4.09;73.40;102378.22;7389738;19;20357;-63
2024/01/08 06:33:24;;;;;;;6.90;5.00;;;;;;;-3.97;72.30;102382.25;7389286;19;20372;-63
2024/01/08 06:35:51;;;;;;;34.20;18.95;;;;;;;-3.87;71.94;102388.88;7395655;19;20369;-63
2024/01/08 06:38:17;;;;;;;6.93;5.15;;;;;;;-3.78;71.52;102388.66;7396758;19;20360;-63
2024/01/08 06:40:44;;;;;;;7.00;5.28;;;;;;;-3.76;70.71;102384.28;7398418;19;20357;-63
2024/01/08 06:43:11;;;;;;;5.17;2.93;;;;;;;-3.74;71.21;102389.41;7397651;19;20368;-63
